Time;durP1;ratioP1;P1;durP2;ratioP2;P2;SDS_P1;SDS_P2;PMS_P1;PMS_P2;Temp;Humidity;BMP_temperature;BMP_pressure;BME280_temperature;BME280_humidity;BME280_pressure;Samples;Min_cycle;Max_cycle;Signal;HPM_P1;HPM_P2
2022/10/15 00:01:17;;;;;;;4.35;4.15;;;;;;;;;;5072918;28;20049;-91
2022/10/15 00:03:44;;;;;;;3.53;2.58;;;;;;;;;;5063658;28;20091;-91
2022/10/15 00:06:12;;;;;;;1.40;1.30;;;;;;;;;;5053220;28;20073;-91
2022/10/15 00:08:39;;;;;;;1.88;1.77;;;;;;;;;;5052575;28;20103;-90
2022/10/15 00:11:07;;;;;;;2.00;1.90;;;;;;;;;;5062655;28;20049;-91
2022/10/15 00:13:35;;;;;;;2.15;1.13;;;;;;;;;;5065998;28;20412;-91
2022/10/15 00:16:01;;;;;;;2.17;1.75;;;;;;;;;;5052676;28;20098;-92
2022/10/15 00:18:28;;;;;;;2.65;2.20;;;;;;;;;;5053040;28;20052;-89
2022/10/15 00:20:55;;;;;;;1.65;1.55;;;;;;;;;;5052677;28;20045;-88
2022/10/15 00:23:21;;;;;;;3.05;2.92;;;;;;;;;;5052467;28;20094;-91
2022/10/15 00:25:48;;;;;;;2.92;2.40;;;;;;;;;;5054498;28;20165;-91
2022/10/15 00:28:14;;;;;;;0.63;0.63;;;;;;;;;;5072497;28;20114;-89
2022/10/15 00:30:42;;;;;;;2.28;2.15;;;;;;;;;;5072292;28;20094;-91
2022/10/15 00:33:09;;;;;;;1.00;0.95;;;;;;;;;;5072588;28;20087;-91
2022/10/15 00:35:35;;;;;;;1.55;1.45;;;;;;;;;;5072779;28;20550;-91
2022/10/15 00:38:02;;;;;;;2.38;2.17;;;;;;;;;;5070612;28;20086;-90
2022/10/15 00:40:28;;;;;;;1.50;1.40;;;;;;;;;;5052209;28;20049;-90
2022/10/15 00:42:55;;;;;;;1.10;1.05;;;;;;;;;;5056795;28;20043;-91
2022/10/15 00:45:21;;;;;;;1.48;1.38;;;;;;;;;;5052739;28;20098;-91
2022/10/15 00:47:50;;;;;;;1.73;1.63;;;;;;;;;;5052741;28;20057;-93
2022/10/15 00:50:18;;;;;;;2.72;1.92;;;;;;;;;;5052787;28;20071;-92
2022/10/15 00:52:47;;;;;;;3.45;1.85;;;;;;;;;;5052409;28;20049;-89
2022/10/15 00:55:15;;;;;;;1.33;1.23;;;;;;;;;;5052356;28;20118;-90
2022/10/15 00:57:43;;;;;;;1.60;1.50;;;;;;;;;;5052365;28;20049;-89
2022/10/15 01:00:10;;;;;;;0.63;0.63;;;;;;;;;;5059934;28;20105;-89
2022/10/15 01:02:37;;;;;;;1.95;1.85;;;;;;;;;;5072309;28;20106;-91
2022/10/15 01:05:06;;;;;;;1.13;1.10;;;;;;;;;;5071087;28;20056;-91
2022/10/15 01:07:32;;;;;;;9.07;1.60;;;;;;;;;;5064503;28;20090;-90
2022/10/15 01:09:59;;;;;;;1.63;1.52;;;;;;;;;;5072154;28;20198;-92
2022/10/15 01:12:37;;;;;;;0.60;0.60;;;;;;;;;;5072142;28;20049;-91
2022/10/15 01:15:06;;;;;;;2.72;2.35;;;;;;;;;;5071748;28;20489;-91
2022/10/15 01:17:36;;;;;;;3.05;1.45;;;;;;;;;;5071513;28;20431;-91
2022/10/15 01:20:17;;;;;;;1.75;1.52;;;;;;;;;;5056629;28;20057;-90
2022/10/15 01:22:53;;;;;;;0.93;0.93;;;;;;;;;;5039380;28;20053;-90
2022/10/15 01:25:29;;;;;;;2.47;1.90;;;;;;;;;;5052277;28;20049;-92
2022/10/15 01:27:56;;;;;;;1.88;1.77;;;;;;;;;;5052106;28;20060;-92
2022/10/15 01:30:30;;;;;;;1.95;1.83;;;;;;;;;;5052367;28;20048;-92
2022/10/15 01:33:08;;;;;;;3.28;1.08;;;;;;;;;;5054589;28;20110;-92
2022/10/15 01:35:39;;;;;;;1.25;1.23;;;;;;;;;;5071255;28;20048;-92
2022/10/15 01:38:09;;;;;;;2.30;2.15;;;;;;;;;;5072155;28;20048;-93
2022/10/15 01:40:38;;;;;;;1.17;1.15;;;;;;;;;;5072121;28;20045;-92
2022/10/15 01:43:08;;;;;;;1.08;1.02;;;;;;;;;;5072014;28;20048;-92
2022/10/15 01:45:39;;;;;;;1.27;1.08;;;;;;;;;;5071911;28;20048;-92
2022/10/15 01:48:08;;;;;;;2.22;1.58;;;;;;;;;;5072337;28;20133;-92
2022/10/15 01:50:35;;;;;;;1.17;1.08;;;;;;;;;;5073981;28;20454;-92
2022/10/15 01:53:03;;;;;;;2.08;1.98;;;;;;;;;;5063850;28;20049;-92
2022/10/15 01:55:31;;;;;;;1.10;0.95;;;;;;;;;;5072717;28;20109;-92
2022/10/15 01:57:58;;;;;;;1.35;1.13;;;;;;;;;;5075845;28;20053;-92
2022/10/15 02:00:24;;;;;;;1.63;1.52;;;;;;;;;;5075559;28;20060;-92
2022/10/15 02:02:52;;;;;;;1.80;1.30;;;;;;;;;;5075123;28;20143;-92
2022/10/15 02:05:21;;;;;;;2.33;2.22;;;;;;;;;;5074835;28;20056;-91
2022/10/15 02:07:53;;;;;;;1.52;1.08;;;;;;;;;;5074783;28;20052;-91
2022/10/15 02:10:23;;;;;;;1.17;1.13;;;;;;;;;;5075051;28;20541;-92
2022/10/15 02:12:55;;;;;;;0.60;0.60;;;;;;;;;;5075652;28;20056;-91
2022/10/15 02:15:26;;;;;;;1.92;1.80;;;;;;;;;;5075144;28;20118;-92
2022/10/15 02:17:58;;;;;;;2.22;1.92;;;;;;;;;;5075031;28;20048;-92
2022/10/15 02:20:28;;;;;;;1.02;0.90;;;;;;;;;;5074571;28;20499;-91
2022/10/15 02:22:56;;;;;;;0.82;0.80;;;;;;;;;;5074956;28;20060;-91
2022/10/15 02:25:24;;;;;;;2.78;2.22;;;;;;;;;;5059207;28;20118;-94
2022/10/15 02:27:52;;;;;;;1.80;1.70;;;;;;;;;;5055719;28;20053;-94
2022/10/15 02:30:19;;;;;;;1.60;1.50;;;;;;;;;;5055674;28;20103;-94
2022/10/15 02:32:47;;;;;;;1.65;1.55;;;;;;;;;;5055304;28;20056;-92
2022/10/15 02:35:14;;;;;;;2.30;1.38;;;;;;;;;;5054823;28;20045;-93
2022/10/15 02:37:43;;;;;;;1.98;1.88;;;;;;;;;;5054683;28;20048;-90
2022/10/15 02:40:10;;;;;;;1.20;1.10;;;;;;;;;;5054567;28;20052;-91
2022/10/15 02:42:37;;;;;;;1.65;1.55;;;;;;;;;;5054613;28;20578;-90
2022/10/15 02:45:03;;;;;;;2.75;2.58;;;;;;;;;;5054864;28;20049;-90
2022/10/15 02:47:30;;;;;;;2.45;1.90;;;;;;;;;;5054864;28;20110;-92
2022/10/15 02:49:57;;;;;;;1.58;1.40;;;;;;;;;;5054591;28;20057;-92
2022/10/15 02:52:24;;;;;;;1.67;1.58;;;;;;;;;;5054407;28;20094;-93
2022/10/15 02:54:51;;;;;;;1.67;1.58;;;;;;;;;;5063761;28;20395;-91
2022/10/15 02:57:17;;;;;;;1.48;1.38;;;;;;;;;;5073643;28;20109;-91
2022/10/15 02:59:44;;;;;;;2.05;1.60;;;;;;;;;;5074345;28;20045;-90
2022/10/15 03:02:10;;;;;;;1.98;1.88;;;;;;;;;;5074363;28;20057;-91
2022/10/15 03:04:38;;;;;;;1.10;1.10;;;;;;;;;;5073732;28;20094;-94
2022/10/15 03:07:04;;;;;;;2.20;2.10;;;;;;;;;;5074661;28;20071;-92
2022/10/15 03:09:32;;;;;;;2.55;1.98;;;;;;;;;;5074233;28;20074;-90
2022/10/15 03:11:58;;;;;;;7.95;1.58;;;;;;;;;;5074307;28;20052;-90
2022/10/15 03:14:25;;;;;;;3.13;2.92;;;;;;;;;;5068791;28;20459;-91
2022/10/15 03:16:51;;;;;;;3.03;2.83;;;;;;;;;;5054540;28;20099;-93
2022/10/15 03:19:18;;;;;;;4.22;1.60;;;;;;;;;;5056657;28;20500;-93
2022/10/15 03:21:45;;;;;;;2.05;1.90;;;;;;;;;;5074201;28;20055;-93
2022/10/15 03:24:11;;;;;;;4.43;4.13;;;;;;;;;;5072630;28;20044;-92
2022/10/15 03:26:39;;;;;;;1.92;1.83;;;;;;;;;;5054063;28;20041;-92
2022/10/15 03:29:05;;;;;;;2.17;2.08;;;;;;;;;;5054817;28;20045;-93
2022/10/15 03:31:32;;;;;;;2.95;2.67;;;;;;;;;;5074364;28;20554;-92
2022/10/15 03:33:58;;;;;;;3.35;2.45;;;;;;;;;;5074111;28;20049;-93
2022/10/15 03:36:25;;;;;;;4.15;2.30;;;;;;;;;;5073454;28;20048;-91
2022/10/15 03:38:51;;;;;;;1.48;1.38;;;;;;;;;;5087283;28;20048;-92
2022/10/15 03:41:18;;;;;;;2.03;1.92;;;;;;;;;;5089095;28;20070;-92
2022/10/15 03:43:46;;;;;;;1.65;1.55;;;;;;;;;;5074868;28;20048;-91
2022/10/15 03:46:12;;;;;;;1.85;1.75;;;;;;;;;;5073456;28;20044;-92
2022/10/15 03:48:39;;;;;;;2.35;2.25;;;;;;;;;;5072351;28;20471;-91
2022/10/15 03:51:05;;;;;;;1.67;1.58;;;;;;;;;;5073068;28;20053;-91
2022/10/15 03:53:32;;;;;;;1.70;1.52;;;;;;;;;;5057752;28;20040;-93
2022/10/15 03:56:02;;;;;;;2.95;2.75;;;;;;;;;;5066361;28;20040;-92
2022/10/15 03:58:29;;;;;;;2.35;2.25;;;;;;;;;;5064501;28;20056;-90
2022/10/15 04:00:56;;;;;;;2.55;2.38;;;;;;;;;;5058646;28;20500;-89
2022/10/15 04:03:23;;;;;;;2.97;2.33;;;;;;;;;;5065946;28;20045;-89
2022/10/15 04:05:50;;;;;;;2.50;2.35;;;;;;;;;;5072605;28;20117;-90
2022/10/15 04:08:17;;;;;;;6.25;3.60;;;;;;;;;;5072892;28;20048;-90
2022/10/15 04:10:43;;;;;;;2.28;2.17;;;;;;;;;;5073255;28;20052;-92
2022/10/15 04:13:10;;;;;;;1.65;1.55;;;;;;;;;;5072819;28;20090;-92
2022/10/15 04:15:38;;;;;;;3.97;2.05;;;;;;;;;;5072751;28;20048;-92
2022/10/15 04:18:06;;;;;;;6.68;2.75;;;;;;;;;;5066978;28;20091;-92
2022/10/15 04:20:33;;;;;;;1.50;1.35;;;;;;;;;;5052571;28;20086;-91
2022/10/15 04:22:59;;;;;;;4.63;3.55;;;;;;;;;;5053125;28;20048;-91
2022/10/15 04:25:26;;;;;;;1.42;1.38;;;;;;;;;;5052842;28;20451;-91
2022/10/15 04:27:53;;;;;;;2.03;1.92;;;;;;;;;;5052683;28;20041;-91
2022/10/15 04:30:19;;;;;;;1.42;0.98;;;;;;;;;;5052924;28;20135;-91
2022/10/15 04:32:46;;;;;;;2.60;2.47;;;;;;;;;;5052694;28;20397;-92
2022/10/15 04:35:14;;;;;;;1.48;1.38;;;;;;;;;;5052524;28;20095;-92
2022/10/15 04:37:40;;;;;;;2.10;2.00;;;;;;;;;;5052660;28;20114;-92
2022/10/15 04:40:08;;;;;;;2.53;2.33;;;;;;;;;;5052645;28;20051;-92
2022/10/15 04:42:34;;;;;;;2.85;2.55;;;;;;;;;;5052477;28;20103;-91
2022/10/15 04:45:01;;;;;;;1.90;1.73;;;;;;;;;;5064278;28;20060;-91
2022/10/15 04:47:27;;;;;;;1.38;1.27;;;;;;;;;;5061535;28;20052;-92
2022/10/15 04:49:54;;;;;;;1.63;1.52;;;;;;;;;;5062573;28;20049;-91
2022/10/15 04:52:22;;;;;;;2.08;1.95;;;;;;;;;;5060720;28;20098;-91
2022/10/15 04:54:48;;;;;;;2.85;2.60;;;;;;;;;;5063424;28;20480;-90
2022/10/15 04:57:15;;;;;;;1.92;1.83;;;;;;;;;;5062855;28;20045;-89
2022/10/15 04:59:43;;;;;;;3.20;3.00;;;;;;;;;;5061824;28;20455;-90
2022/10/15 05:02:09;;;;;;;2.85;2.65;;;;;;;;;;5060177;28;20047;-90
2022/10/15 05:04:36;;;;;;;3.60;3.17;;;;;;;;;;5060640;28;20053;-89
2022/10/15 05:07:03;;;;;;;4.97;2.42;;;;;;;;;;5059817;28;20045;-89
2022/10/15 05:09:30;;;;;;;3.08;2.38;;;;;;;;;;5062775;28;20044;-89
2022/10/15 05:11:57;;;;;;;2.70;2.13;;;;;;;;;;5060040;28;20048;-90
2022/10/15 05:14:24;;;;;;;2.05;1.85;;;;;;;;;;5062233;28;20562;-89
2022/10/15 05:16:50;;;;;;;1.45;1.30;;;;;;;;;;5063277;28;20048;-91
2022/10/15 05:19:17;;;;;;;2.08;1.83;;;;;;;;;;5061672;28;20049;-90
2022/10/15 05:21:43;;;;;;;2.47;2.25;;;;;;;;;;5060750;28;20052;-91
2022/10/15 05:24:10;;;;;;;4.97;4.60;;;;;;;;;;5062405;28;20094;-90
2022/10/15 05:26:38;;;;;;;1.88;1.77;;;;;;;;;;5064198;28;20105;-91
2022/10/15 05:29:04;;;;;;;2.17;2.08;;;;;;;;;;5068699;28;20050;-91
2022/10/15 05:31:31;;;;;;;2.60;2.40;;;;;;;;;;5064322;28;20736;-92
2022/10/15 05:33:58;;;;;;;2.40;2.30;;;;;;;;;;5062090;28;20109;-90
2022/10/15 05:36:25;;;;;;;2.92;2.72;;;;;;;;;;5064952;28;20053;-90
2022/10/15 05:38:52;;;;;;;3.85;3.55;;;;;;;;;;5066318;28;20557;-91
2022/10/15 05:41:19;;;;;;;2.15;1.95;;;;;;;;;;5065659;28;20431;-91
2022/10/15 05:43:47;;;;;;;3.20;2.90;;;;;;;;;;5055531;28;20049;-90
2022/10/15 05:46:14;;;;;;;2.40;2.30;;;;;;;;;;5055394;28;20045;-91
2022/10/15 05:48:41;;;;;;;5.68;4.68;;;;;;;;;;5064187;28;20045;-91
2022/10/15 05:51:08;;;;;;;3.28;3.08;;;;;;;;;;5069304;28;20045;-91
2022/10/15 05:53:35;;;;;;;4.43;4.13;;;;;;;;;;5058968;28;20734;-89
2022/10/15 05:56:01;;;;;;;3.40;3.17;;;;;;;;;;5055138;28;20057;-90
2022/10/15 05:58:28;;;;;;;3.97;3.67;;;;;;;;;;5061487;28;20044;-90
2022/10/15 06:00:57;;;;;;;3.22;2.95;;;;;;;;;;5067546;28;20083;-89
2022/10/15 06:03:24;;;;;;;2.33;2.22;;;;;;;;;;5071710;28;20078;-89
2022/10/15 06:05:51;;;;;;;5.85;3.40;;;;;;;;;;5061065;28;20443;-90
2022/10/15 06:08:17;;;;;;;3.30;2.65;;;;;;;;;;5064284;28;20045;-86
2022/10/15 06:10:44;;;;;;;3.95;3.65;;;;;;;;;;5060022;28;20106;-86
2022/10/15 06:13:11;;;;;;;3.85;3.53;;;;;;;;;;5071008;28;20110;-89
2022/10/15 06:15:38;;;;;;;3.65;3.42;;;;;;;;;;5063465;28;20099;-89
2022/10/15 06:18:06;;;;;;;2.72;2.53;;;;;;;;;;5057277;28;20052;-89
2022/10/15 06:20:33;;;;;;;2.78;1.95;;;;;;;;;;5060656;28;20427;-89
2022/10/15 06:22:59;;;;;;;4.68;4.38;;;;;;;;;;5060823;28;20041;-89
2022/10/15 06:25:26;;;;;;;1.98;1.85;;;;;;;;;;5060966;28;20049;-90
2022/10/15 06:27:53;;;;;;;2.35;2.05;;;;;;;;;;5061422;28;20061;-90
2022/10/15 06:30:20;;;;;;;2.50;2.30;;;;;;;;;;5061191;28;20103;-89
2022/10/15 06:32:49;;;;;;;2.78;2.58;;;;;;;;;;5062932;28;20102;-90
2022/10/15 06:35:18;;;;;;;2.33;2.22;;;;;;;;;;5057935;28;20067;-89
2022/10/15 06:37:44;;;;;;;2.55;2.35;;;;;;;;;;5052854;28;20049;-91
2022/10/15 06:40:11;;;;;;;2.25;2.05;;;;;;;;;;5053133;28;20413;-90
2022/10/15 06:42:38;;;;;;;3.85;3.22;;;;;;;;;;5053424;28;20049;-90
2022/10/15 06:45:05;;;;;;;3.22;2.88;;;;;;;;;;5052879;28;20136;-89
2022/10/15 06:47:31;;;;;;;6.82;2.30;;;;;;;;;;5052074;28;20049;-90
2022/10/15 06:49:58;;;;;;;4.07;3.30;;;;;;;;;;5050626;28;20561;-90
2022/10/15 06:52:25;;;;;;;5.45;2.33;;;;;;;;;;5050028;28;20049;-90
2022/10/15 06:54:52;;;;;;;1.42;1.33;;;;;;;;;;5052327;28;20110;-91
2022/10/15 06:57:19;;;;;;;2.55;2.20;;;;;;;;;;5052244;28;20129;-90
2022/10/15 06:59:45;;;;;;;3.13;2.90;;;;;;;;;;5052459;28;20056;-90
2022/10/15 07:02:12;;;;;;;2.55;1.88;;;;;;;;;;5052261;28;20508;-90
2022/10/15 07:04:39;;;;;;;1.98;1.88;;;;;;;;;;5052122;28;20052;-90
2022/10/15 07:07:06;;;;;;;3.28;2.97;;;;;;;;;;5052556;28;20539;-90
2022/10/15 07:09:34;;;;;;;4.13;3.72;;;;;;;;;;5072658;28;20060;-90
2022/10/15 07:12:00;;;;;;;4.25;3.60;;;;;;;;;;5060285;28;20056;-90
2022/10/15 07:14:27;;;;;;;6.55;4.95;;;;;;;;;;5052231;28;20061;-90
2022/10/15 07:16:53;;;;;;;3.63;3.42;;;;;;;;;;5052733;28;168323;-90
2022/10/15 07:19:20;;;;;;;1.52;1.42;;;;;;;;;;5072586;28;20417;-88
2022/10/15 07:21:46;;;;;;;3.53;3.22;;;;;;;;;;5071602;28;20053;-88
2022/10/15 07:24:13;;;;;;;5.72;5.03;;;;;;;;;;5073220;28;20063;-87
2022/10/15 07:26:41;;;;;;;3.15;2.95;;;;;;;;;;5073146;28;20044;-88
2022/10/15 07:29:07;;;;;;;6.43;4.75;;;;;;;;;;5073027;28;20125;-87
2022/10/15 07:31:34;;;;;;;4.95;4.55;;;;;;;;;;5072149;28;20052;-85
2022/10/15 07:34:00;;;;;;;5.95;4.80;;;;;;;;;;5072616;28;20049;-88
2022/10/15 07:36:27;;;;;;;4.43;4.00;;;;;;;;;;5059226;28;20098;-87
2022/10/15 07:38:54;;;;;;;3.97;3.67;;;;;;;;;;5060400;28;20483;-87
2022/10/15 07:41:20;;;;;;;3.45;2.90;;;;;;;;;;5062576;28;20040;-88
2022/10/15 07:43:48;;;;;;;3.67;2.90;;;;;;;;;;5057908;28;20503;-88
2022/10/15 07:46:14;;;;;;;4.18;3.35;;;;;;;;;;5051356;28;20488;-87
2022/10/15 07:48:41;;;;;;;3.60;3.40;;;;;;;;;;5054146;28;20056;-88
2022/10/15 07:51:07;;;;;;;3.05;2.40;;;;;;;;;;5062965;28;20113;-87
2022/10/15 07:53:34;;;;;;;2.97;2.35;;;;;;;;;;5061626;28;20056;-87
2022/10/15 07:56:01;;;;;;;2.92;2.50;;;;;;;;;;5052967;28;20045;-88
2022/10/15 07:58:29;;;;;;;6.13;3.08;;;;;;;;;;5054730;28;20558;-88
2022/10/15 08:00:59;;;;;;;3.88;3.00;;;;;;;;;;5065543;28;20065;-88
2022/10/15 08:03:25;;;;;;;3.60;3.15;;;;;;;;;;5060941;28;20083;-90
2022/10/15 08:05:53;;;;;;;2.65;2.47;;;;;;;;;;5055041;28;20056;-88
2022/10/15 08:08:20;;;;;;;3.85;2.10;;;;;;;;;;5054851;28;20480;-89
2022/10/15 08:10:46;;;;;;;3.25;2.95;;;;;;;;;;5061553;28;20048;-89
2022/10/15 08:13:13;;;;;;;4.32;3.92;;;;;;;;;;5059127;28;20045;-88
2022/10/15 08:15:40;;;;;;;4.30;2.75;;;;;;;;;;5054753;28;20048;-88
2022/10/15 08:18:08;;;;;;;3.03;2.83;;;;;;;;;;5069591;28;20052;-88
2022/10/15 08:20:35;;;;;;;3.28;2.97;;;;;;;;;;5072082;28;20044;-89
2022/10/15 08:23:02;;;;;;;3.15;2.90;;;;;;;;;;5071422;28;20052;-89
2022/10/15 08:25:29;;;;;;;2.72;2.53;;;;;;;;;;5066271;28;20428;-88
2022/10/15 08:27:56;;;;;;;3.17;2.80;;;;;;;;;;5069867;28;20562;-89
2022/10/15 08:30:22;;;;;;;2.53;2.22;;;;;;;;;;5070517;28;20044;-89
2022/10/15 08:32:49;;;;;;;4.13;3.83;;;;;;;;;;5056370;28;20053;-88
2022/10/15 08:35:17;;;;;;;2.90;2.63;;;;;;;;;;5052021;28;20049;-88
2022/10/15 08:37:43;;;;;;;2.55;2.35;;;;;;;;;;5060864;28;20112;-89
2022/10/15 08:40:12;;;;;;;3.83;3.53;;;;;;;;;;5059046;28;20099;-88
2022/10/15 08:42:41;;;;;;;3.25;3.05;;;;;;;;;;5057575;28;20059;-88
2022/10/15 08:45:14;;;;;;;3.17;2.92;;;;;;;;;;5060797;28;20053;-88
2022/10/15 08:47:43;;;;;;;3.72;3.08;;;;;;;;;;5057423;28;20048;-88
2022/10/15 08:50:17;;;;;;;3.20;2.90;;;;;;;;;;5051698;28;20512;-89
2022/10/15 08:52:46;;;;;;;5.18;3.22;;;;;;;;;;5057107;28;20098;-89
2022/10/15 08:55:13;;;;;;;5.15;4.65;;;;;;;;;;5059871;28;20109;-89
2022/10/15 08:57:43;;;;;;;3.67;3.13;;;;;;;;;;5061182;28;20447;-88
2022/10/15 09:00:13;;;;;;;2.97;2.45;;;;;;;;;;5061374;28;20506;-88
2022/10/15 09:02:42;;;;;;;5.25;4.38;;;;;;;;;;5058276;28;20052;-89
2022/10/15 09:05:17;;;;;;;3.72;2.47;;;;;;;;;;5058846;28;20049;-89
2022/10/15 09:07:47;;;;;;;4.57;2.30;;;;;;;;;;5051118;28;20119;-89
2022/10/15 09:10:15;;;;;;;3.75;2.60;;;;;;;;;;5051537;28;20053;-89
2022/10/15 09:12:53;;;;;;;3.70;3.40;;;;;;;;;;5059290;28;20053;-90
2022/10/15 09:15:20;;;;;;;1.35;1.25;;;;;;;;;;5059373;28;20106;-89
2022/10/15 09:17:48;;;;;;;3.00;2.70;;;;;;;;;;5056635;28;20053;-89
2022/10/15 09:20:16;;;;;;;3.72;3.40;;;;;;;;;;5051654;28;20053;-89
2022/10/15 09:22:42;;;;;;;2.58;2.38;;;;;;;;;;5061733;28;20106;-89
2022/10/15 09:25:15;;;;;;;4.07;3.65;;;;;;;;;;5071257;28;20102;-90
2022/10/15 09:27:42;;;;;;;2.63;2.42;;;;;;;;;;5071174;28;20098;-89
2022/10/15 09:30:18;;;;;;;2.42;2.28;;;;;;;;;;5070669;28;20467;-89
2022/10/15 09:32:46;;;;;;;1.80;1.70;;;;;;;;;;5071249;28;20114;-90
2022/10/15 09:35:17;;;;;;;5.53;2.60;;;;;;;;;;5070241;28;20048;-89
2022/10/15 09:37:48;;;;;;;2.60;2.40;;;;;;;;;;5070676;28;20048;-88
2022/10/15 09:40:28;;;;;;;1.95;1.65;;;;;;;;;;5070255;28;20052;-89
2022/10/15 09:42:55;;;;;;;3.60;2.63;;;;;;;;;;5059088;28;20057;-90
2022/10/15 09:45:23;;;;;;;3.53;2.63;;;;;;;;;;5051226;28;20109;-90
2022/10/15 09:47:50;;;;;;;2.58;2.30;;;;;;;;;;5050044;28;20049;-90
2022/10/15 09:50:17;;;;;;;3.20;2.90;;;;;;;;;;5068773;28;20040;-89
2022/10/15 09:52:54;;;;;;;2.92;2.70;;;;;;;;;;5067468;28;20439;-90
2022/10/15 09:55:30;;;;;;;3.38;3.17;;;;;;;;;;5070958;28;20048;-89
2022/10/15 09:57:59;;;;;;;2.03;1.83;;;;;;;;;;5065551;28;20098;-90
2022/10/15 10:00:25;;;;;;;3.03;2.72;;;;;;;;;;5070818;28;20145;-89
2022/10/15 10:03:03;;;;;;;4.32;2.55;;;;;;;;;;5060452;28;20075;-89
2022/10/15 10:05:31;;;;;;;3.42;3.13;;;;;;;;;;5051442;28;20055;-89
2022/10/15 10:08:07;;;;;;;2.45;2.30;;;;;;;;;;5050924;28;20508;-89
2022/10/15 10:10:36;;;;;;;3.67;3.47;;;;;;;;;;5056442;28;20053;-89
2022/10/15 10:13:02;;;;;;;2.78;2.58;;;;;;;;;;5070733;28;20462;-89
2022/10/15 10:15:33;;;;;;;3.50;2.95;;;;;;;;;;5074348;28;20514;-89
2022/10/15 10:18:00;;;;;;;4.50;4.10;;;;;;;;;;5073809;28;20113;-89
2022/10/15 10:20:26;;;;;;;3.25;3.05;;;;;;;;;;5067715;28;20049;-90
2022/10/15 10:22:54;;;;;;;3.67;3.45;;;;;;;;;;5058736;28;20049;-90
2022/10/15 10:25:32;;;;;;;3.95;3.70;;;;;;;;;;5054699;28;20098;-90
2022/10/15 10:28:04;;;;;;;4.75;4.45;;;;;;;;;;5061044;28;20052;-89
2022/10/15 10:30:33;;;;;;;3.58;3.38;;;;;;;;;;5063601;28;20052;-90
2022/10/15 10:33:00;;;;;;;4.45;3.15;;;;;;;;;;5062481;28;20048;-90
2022/10/15 10:35:29;;;;;;;4.38;4.07;;;;;;;;;;5073777;28;20057;-89
2022/10/15 10:37:55;;;;;;;4.72;4.43;;;;;;;;;;5051802;28;20077;-91
2022/10/15 10:40:24;;;;;;;3.50;3.30;;;;;;;;;;5054085;28;20107;-89
2022/10/15 10:43:09;;;;;;;3.75;3.53;;;;;;;;;;5060984;28;20048;-89
2022/10/15 10:45:36;;;;;;;5.50;5.18;;;;;;;;;;5065880;28;20135;-90
2022/10/15 10:48:17;;;;;;;3.88;3.47;;;;;;;;;;5064693;28;20049;-90
2022/10/15 10:50:44;;;;;;;7.97;3.50;;;;;;;;;;5053280;28;20053;-89
2022/10/15 10:53:14;;;;;;;2.38;2.17;;;;;;;;;;5054103;28;20099;-90
2022/10/15 10:55:42;;;;;;;4.22;3.88;;;;;;;;;;5054296;28;20057;-90
2022/10/15 10:58:12;;;;;;;3.35;2.85;;;;;;;;;;5053709;28;20045;-89
2022/10/15 11:00:41;;;;;;;3.83;3.55;;;;;;;;;;5062019;28;20052;-90
2022/10/15 11:03:15;;;;;;;2.90;2.70;;;;;;;;;;5066272;28;20049;-90
2022/10/15 11:05:42;;;;;;;3.88;3.58;;;;;;;;;;5068619;28;20056;-88
2022/10/15 11:08:13;;;;;;;3.30;3.10;;;;;;;;;;5066483;28;20056;-90
2022/10/15 11:10:46;;;;;;;3.80;3.47;;;;;;;;;;5063281;28;20056;-89
2022/10/15 11:13:23;;;;;;;3.50;3.20;;;;;;;;;;5060092;28;20102;-90
2022/10/15 11:15:53;;;;;;;3.25;2.95;;;;;;;;;;5060844;28;20109;-88
2022/10/15 11:18:27;;;;;;;2.75;2.65;;;;;;;;;;5058013;28;20057;-89
2022/10/15 11:20:59;;;;;;;3.75;3.45;;;;;;;;;;5051581;28;20489;-89
2022/10/15 11:23:33;;;;;;;3.30;3.00;;;;;;;;;;5052842;28;20549;-89
2022/10/15 11:26:02;;;;;;;3.15;2.92;;;;;;;;;;5052999;28;20053;-90
2022/10/15 11:28:45;;;;;;;2.40;2.20;;;;;;;;;;5053162;28;20534;-89
2022/10/15 11:31:18;;;;;;;3.40;3.20;;;;;;;;;;5055841;28;20121;-88
2022/10/15 11:33:51;;;;;;;3.28;3.08;;;;;;;;;;5072547;28;20048;-88
2022/10/15 11:36:29;;;;;;;3.05;2.83;;;;;;;;;;5072065;28;20052;-89
2022/10/15 11:39:00;;;;;;;4.20;3.88;;;;;;;;;;5072462;28;20049;-89
2022/10/15 11:41:31;;;;;;;3.53;3.22;;;;;;;;;;5073259;28;20059;-89
2022/10/15 11:44:04;;;;;;;4.65;4.40;;;;;;;;;;5072801;28;20052;-89
2022/10/15 11:46:36;;;;;;;4.15;3.85;;;;;;;;;;5072076;28;20103;-88
2022/10/15 11:49:10;;;;;;;3.85;3.58;;;;;;;;;;5072091;28;20109;-89
2022/10/15 11:51:42;;;;;;;4.18;2.97;;;;;;;;;;5072569;28;20060;-89
2022/10/15 11:54:16;;;;;;;3.15;2.85;;;;;;;;;;5072758;28;20052;-89
2022/10/15 11:56:44;;;;;;;5.15;4.75;;;;;;;;;;5073149;28;20052;-89
2022/10/15 11:59:17;;;;;;;5.97;5.50;;;;;;;;;;5072427;28;20044;-88
2022/10/15 12:01:46;;;;;;;3.83;3.53;;;;;;;;;;5072309;28;20048;-90
2022/10/15 12:04:15;;;;;;;4.63;4.32;;;;;;;;;;5057514;28;20057;-89
2022/10/15 12:06:44;;;;;;;5.03;2.78;;;;;;;;;;5052891;28;20493;-89
2022/10/15 12:09:14;;;;;;;3.05;2.85;;;;;;;;;;5052557;28;20500;-89
2022/10/15 12:11:45;;;;;;;2.63;2.42;;;;;;;;;;5052606;28;20044;-89
2022/10/15 12:14:17;;;;;;;4.53;4.13;;;;;;;;;;5052436;28;20057;-89
2022/10/15 12:16:47;;;;;;;4.18;3.88;;;;;;;;;;5052338;28;20061;-89
2022/10/15 12:19:16;;;;;;;4.40;4.07;;;;;;;;;;5051811;28;20072;-88
2022/10/15 12:21:44;;;;;;;3.67;3.47;;;;;;;;;;5063698;28;20059;-88
2022/10/15 12:24:25;;;;;;;4.18;3.88;;;;;;;;;;5072006;28;20455;-89
2022/10/15 12:26:52;;;;;;;4.68;4.38;;;;;;;;;;5071677;28;20045;-89
2022/10/15 12:29:20;;;;;;;5.57;5.18;;;;;;;;;;5071730;28;20044;-89
2022/10/15 12:31:49;;;;;;;3.50;2.90;;;;;;;;;;5069853;28;20086;-89
2022/10/15 12:34:27;;;;;;;5.30;3.88;;;;;;;;;;5059037;28;20040;-89
2022/10/15 12:37:02;;;;;;;3.67;3.47;;;;;;;;;;5061334;28;20048;-89
2022/10/15 12:39:29;;;;;;;4.32;4.03;;;;;;;;;;5061009;28;20044;-89
2022/10/15 12:41:56;;;;;;;2.47;2.25;;;;;;;;;;5052021;28;20045;-89
2022/10/15 12:44:24;;;;;;;3.50;3.28;;;;;;;;;;5064491;28;20041;-89
2022/10/15 12:46:52;;;;;;;4.85;4.35;;;;;;;;;;5068318;28;20056;-89
2022/10/15 12:49:37;;;;;;;4.95;4.32;;;;;;;;;;5058764;28;20120;-87
2022/10/15 12:52:27;;;;;;;3.95;3.65;;;;;;;;;;5051628;28;20102;-86
2022/10/15 12:54:53;;;;;;;4.40;4.18;;;;;;;;;;5055599;28;20106;-87
2022/10/15 12:57:50;;;;;;;3.78;3.47;;;;;;;;;;5071373;28;20492;-88
2022/10/15 13:00:31;;;;;;;3.78;3.47;;;;;;;;;;5009912;28;20046;-87
2022/10/15 13:03:07;;;;;;;4.60;4.30;;;;;;;;;;5013720;28;20645;-87
2022/10/15 13:05:35;;;;;;;2.50;2.30;;;;;;;;;;5010114;28;20525;-88
2022/10/15 13:08:02;;;;;;;4.72;4.40;;;;;;;;;;5009758;28;20126;-87
2022/10/15 13:10:29;;;;;;;3.55;3.25;;;;;;;;;;5009705;28;20564;-86
2022/10/15 13:12:57;;;;;;;3.70;3.45;;;;;;;;;;5010093;28;20506;-87
2022/10/15 13:15:25;;;;;;;4.55;3.40;;;;;;;;;;5009947;28;20054;-87
2022/10/15 13:17:52;;;;;;;2.58;2.38;;;;;;;;;;5009831;28;20120;-87
2022/10/15 13:20:29;;;;;;;4.53;4.20;;;;;;;;;;5009494;28;20498;-88
2022/10/15 13:23:07;;;;;;;4.05;3.75;;;;;;;;;;5010128;28;20390;-88
2022/10/15 13:25:33;;;;;;;2.90;2.60;;;;;;;;;;5009650;28;20049;-87
2022/10/15 13:28:00;;;;;;;3.33;3.00;;;;;;;;;;5009891;28;20102;-88
2022/10/15 13:30:26;;;;;;;2.45;2.25;;;;;;;;;;5009760;28;20050;-88
2022/10/15 13:32:54;;;;;;;3.15;2.95;;;;;;;;;;5009550;28;20603;-88
2022/10/15 13:35:22;;;;;;;3.47;2.40;;;;;;;;;;5045326;28;20048;-88
2022/10/15 13:37:50;;;;;;;5.13;4.80;;;;;;;;;;5057887;28;20483;-89
2022/10/15 13:40:18;;;;;;;3.55;3.25;;;;;;;;;;5069477;28;20048;-89
2022/10/15 13:42:57;;;;;;;5.35;5.05;;;;;;;;;;5071690;28;20518;-89
2022/10/15 13:45:24;;;;;;;3.22;3.03;;;;;;;;;;5072486;28;20056;-89
2022/10/15 13:47:51;;;;;;;4.35;4.13;;;;;;;;;;5075374;28;20450;-89
2022/10/15 13:50:19;;;;;;;3.22;3.03;;;;;;;;;;5066436;28;20094;-89
2022/10/15 13:52:48;;;;;;;3.15;2.95;;;;;;;;;;5075202;28;20048;-88
2022/10/15 13:55:20;;;;;;;3.63;3.33;;;;;;;;;;5066033;28;20118;-89
2022/10/15 13:57:47;;;;;;;3.42;3.13;;;;;;;;;;5074743;28;20557;-88
2022/10/15 14:00:22;;;;;;;3.63;3.33;;;;;;;;;;5074051;28;20109;-90
2022/10/15 14:03:06;;;;;;;5.40;4.72;;;;;;;;;;5075023;28;20048;-90
2022/10/15 14:05:32;;;;;;;3.10;2.90;;;;;;;;;;5074993;28;20053;-90
2022/10/15 14:07:59;;;;;;;4.85;4.55;;;;;;;;;;5075020;28;20562;-90
2022/10/15 14:10:26;;;;;;;2.90;2.70;;;;;;;;;;5074766;28;20106;-90
2022/10/15 14:12:53;;;;;;;2.90;2.70;;;;;;;;;;5075240;28;20052;-89
2022/10/15 14:15:39;;;;;;;3.65;3.03;;;;;;;;;;5058565;28;20098;-89
2022/10/15 14:18:06;;;;;;;3.85;3.55;;;;;;;;;;5062632;28;20056;-89
2022/10/15 14:20:33;;;;;;;10.15;2.92;;;;;;;;;;5074829;28;20492;-90
2022/10/15 14:22:59;;;;;;;3.50;3.25;;;;;;;;;;5074446;28;20106;-90
2022/10/15 14:25:27;;;;;;;5.18;4.53;;;;;;;;;;5074783;28;20056;-90
2022/10/15 14:27:54;;;;;;;3.40;3.10;;;;;;;;;;5071352;28;20049;-89
2022/10/15 14:30:25;;;;;;;3.05;2.78;;;;;;;;;;5054930;28;20057;-89
2022/10/15 14:32:52;;;;;;;2.92;2.53;;;;;;;;;;5070132;28;21398;-90
2022/10/15 14:35:23;;;;;;;2.95;2.75;;;;;;;;;;5074858;28;20139;-89
2022/10/15 14:37:58;;;;;;;4.30;2.78;;;;;;;;;;5057789;28;20056;-90
2022/10/15 14:40:24;;;;;;;2.20;1.83;;;;;;;;;;5057910;28;20044;-89
2022/10/15 14:43:03;;;;;;;3.03;2.83;;;;;;;;;;5065741;28;20428;-89
2022/10/15 14:45:30;;;;;;;5.10;4.85;;;;;;;;;;5062569;28;20055;-89
2022/10/15 14:47:58;;;;;;;2.67;2.47;;;;;;;;;;5069576;28;20522;-89
2022/10/15 14:50:26;;;;;;;3.70;2.65;;;;;;;;;;5065630;28;20721;-89
2022/10/15 14:52:53;;;;;;;2.28;2.17;;;;;;;;;;5054404;28;20098;-89